Hovedside
METAR-TAF:

METAR-TAF

Lufthavner :

Seinäjoki lufthavn

Seinäjoki-Ilmajoki, Finland

breddegrad: 62-41-37N, lengdegrad: 022-49-55E, høyde over havet: 91 m

Gjeldene værobservasjon

Denne rapporten ble laget for 14 minutter siden, klokken 12:50 UTC
Vind 1 kt fra Vest
Temperatur 20°C
Luftfuktighet 43%
Trykk 1010 hPa
Sikt 10 km eller mer
ingen skyer under 1500 m og ingen bygeskyer

METAR: EFSI 151250Z AUTO 28001KT CAVOK 20/07 Q1010

Tid: 16:04 (13:04 UTC)


TAF: fraværende

Værobservasjoner og værvarsel for over 4000 flyplasser (METAR- og TAF-rapporter).

Tilgjengelige stasjoner er representert av de røde og gule prikkene på kartet.

Hold musepekeren over prikken for å se navnet på stasjonen.

Klikk så for å se værobservasjoner og -varsler.

For å forandre kartet kan du klikke på den grønne knappen med svart kryss for å zoome inn, på den grønne knappen med strek for å zoome ut, eller på de grønne pilene for å se tilstøtende kart.


METAR-TAF: